sensor_id;sensor_type;location;lat;lon;timestamp;temperature;humidity
20162;DHT22;51382;53.180;15.414;2023-07-09T00:11:48;13.10;99.90
20162;DHT22;51382;53.180;15.414;2023-07-09T00:27:00;12.80;99.90
20162;DHT22;51382;53.180;15.414;2023-07-09T00:42:14;12.70;99.90
20162;DHT22;51382;53.180;15.414;2023-07-09T01:13:06;12.80;99.90
20162;DHT22;51382;53.180;15.414;2023-07-09T01:28:18;11.90;99.90
20162;DHT22;51382;53.180;15.414;2023-07-09T01:43:30;12.00;99.90
20162;DHT22;51382;53.180;15.414;2023-07-09T01:58:43;12.10;99.90
20162;DHT22;51382;53.180;15.414;2023-07-09T02:13:55;11.80;99.90
20162;DHT22;51382;53.180;15.414;2023-07-09T02:29:07;11.80;99.90
20162;DHT22;51382;53.180;15.414;2023-07-09T02:44:18;12.40;99.90
20162;DHT22;51382;53.180;15.414;2023-07-09T02:59:30;12.00;99.90
20162;DHT22;51382;53.180;15.414;2023-07-09T03:14:42;12.10;99.90
20162;DHT22;51382;53.180;15.414;2023-07-09T03:29:56;11.80;99.90
20162;DHT22;51382;53.180;15.414;2023-07-09T03:45:09;12.40;99.90
20162;DHT22;51382;53.180;15.414;2023-07-09T04:00:20;13.30;99.90
20162;DHT22;51382;53.180;15.414;2023-07-09T04:15:32;13.60;99.90
20162;DHT22;51382;53.180;15.414;2023-07-09T04:30:48;19.80;92.60
20162;DHT22;51382;53.180;15.414;2023-07-09T04:46:00;21.40;85.20
20162;DHT22;51382;53.180;15.414;2023-07-09T05:01:11;21.60;82.50
20162;DHT22;51382;53.180;15.414;2023-07-09T05:16:18;21.70;84.30
20162;DHT22;51382;53.180;15.414;2023-07-09T05:31:29;25.80;71.90
20162;DHT22;51382;53.180;15.414;2023-07-09T05:46:40;25.40;70.20
20162;DHT22;51382;53.180;15.414;2023-07-09T06:01:51;27.70;61.80
20162;DHT22;51382;53.180;15.414;2023-07-09T06:17:03;28.50;59.90
20162;DHT22;51382;53.180;15.414;2023-07-09T06:48:58;25.80;60.30
20162;DHT22;51382;53.180;15.414;2023-07-09T07:04:10;24.70;64.10
20162;DHT22;51382;53.180;15.414;2023-07-09T07:19:24;29.10;54.30
20162;DHT22;51382;53.180;15.414;2023-07-09T07:34:35;35.30;42.50
20162;DHT22;51382;53.180;15.414;2023-07-09T07:49:47;33.40;43.60
20162;DHT22;51382;53.180;15.414;2023-07-09T08:04:58;38.40;37.00
20162;DHT22;51382;53.180;15.414;2023-07-09T08:20:10;34.70;40.00
20162;DHT22;51382;53.180;15.414;2023-07-09T08:35:21;37.60;36.80
20162;DHT22;51382;53.180;15.414;2023-07-09T08:50:35;27.90;47.90
20162;DHT22;51382;53.180;15.414;2023-07-09T09:05:49;27.80;42.30
20162;DHT22;51382;53.180;15.414;2023-07-09T09:21:01;27.10;45.70
20162;DHT22;51382;53.180;15.414;2023-07-09T09:36:20;27.70;42.70
20162;DHT22;51382;53.180;15.414;2023-07-09T09:51:33;27.20;39.40
20162;DHT22;51382;53.180;15.414;2023-07-09T10:06:46;27.90;35.30
20162;DHT22;51382;53.180;15.414;2023-07-09T10:22:04;28.00;32.90
20162;DHT22;51382;53.180;15.414;2023-07-09T10:37:33;28.20;38.60
20162;DHT22;51382;53.180;15.414;2023-07-09T10:52:56;27.80;38.90
20162;DHT22;51382;53.180;15.414;2023-07-09T11:08:11;27.50;38.90
20162;DHT22;51382;53.180;15.414;2023-07-09T11:23:25;27.80;40.20
20162;DHT22;51382;53.180;15.414;2023-07-09T11:38:46;28.20;38.40
20162;DHT22;51382;53.180;15.414;2023-07-09T11:54:00;28.00;41.00
20162;DHT22;51382;53.180;15.414;2023-07-09T12:09:13;28.20;36.20
20162;DHT22;51382;53.180;15.414;2023-07-09T12:24:26;28.50;35.60
20162;DHT22;51382;53.180;15.414;2023-07-09T12:39:40;28.20;37.80
20162;DHT22;51382;53.180;15.414;2023-07-09T12:54:58;28.30;39.20
20162;DHT22;51382;53.180;15.414;2023-07-09T13:10:16;28.50;40.80
20162;DHT22;51382;53.180;15.414;2023-07-09T13:25:28;28.40;41.00
20162;DHT22;51382;53.180;15.414;2023-07-09T13:40:40;28.50;39.80
20162;DHT22;51382;53.180;15.414;2023-07-09T13:55:52;28.40;40.90
20162;DHT22;51382;53.180;15.414;2023-07-09T14:11:07;28.50;39.00
20162;DHT22;51382;53.180;15.414;2023-07-09T14:26:20;29.00;39.40
20162;DHT22;51382;53.180;15.414;2023-07-09T14:41:32;28.70;39.60
20162;DHT22;51382;53.180;15.414;2023-07-09T14:56:45;28.60;38.70
20162;DHT22;51382;53.180;15.414;2023-07-09T15:11:58;28.50;40.70
20162;DHT22;51382;53.180;15.414;2023-07-09T15:27:12;28.50;40.50
20162;DHT22;51382;53.180;15.414;2023-07-09T15:42:23;28.60;39.70
20162;DHT22;51382;53.180;15.414;2023-07-09T15:57:35;28.40;40.60
20162;DHT22;51382;53.180;15.414;2023-07-09T16:12:47;28.50;41.10
20162;DHT22;51382;53.180;15.414;2023-07-09T16:27:59;28.40;42.50
20162;DHT22;51382;53.180;15.414;2023-07-09T16:43:13;28.30;42.50
20162;DHT22;51382;53.180;15.414;2023-07-09T16:58:28;28.10;42.00
20162;DHT22;51382;53.180;15.414;2023-07-09T17:13:39;28.00;43.50
20162;DHT22;51382;53.180;15.414;2023-07-09T17:28:51;27.70;42.60
20162;DHT22;51382;53.180;15.414;2023-07-09T17:44:04;27.30;44.50
20162;DHT22;51382;53.180;15.414;2023-07-09T17:59:21;26.50;50.70
20162;DHT22;51382;53.180;15.414;2023-07-09T18:14:36;26.00;51.10
20162;DHT22;51382;53.180;15.414;2023-07-09T18:29:52;25.90;50.10
20162;DHT22;51382;53.180;15.414;2023-07-09T18:45:04;25.30;55.20
20162;DHT22;51382;53.180;15.414;2023-07-09T19:00:18;24.00;62.30
20162;DHT22;51382;53.180;15.414;2023-07-09T19:15:32;22.90;71.30
20162;DHT22;51382;53.180;15.414;2023-07-09T19:30:47;22.50;76.40
20162;DHT22;51382;53.180;15.414;2023-07-09T19:45:59;21.80;81.80
20162;DHT22;51382;53.180;15.414;2023-07-09T20:01:12;20.90;82.20
20162;DHT22;51382;53.180;15.414;2023-07-09T20:16:25;20.30;87.50
20162;DHT22;51382;53.180;15.414;2023-07-09T20:31:37;19.80;90.70
20162;DHT22;51382;53.180;15.414;2023-07-09T20:46:49;18.60;91.00
20162;DHT22;51382;53.180;15.414;2023-07-09T21:02:00;19.10;89.60
20162;DHT22;51382;53.180;15.414;2023-07-09T21:17:24;19.20;89.50
20162;DHT22;51382;53.180;15.414;2023-07-09T21:32:37;19.10;91.20
20162;DHT22;51382;53.180;15.414;2023-07-09T21:47:51;18.50;93.50
20162;DHT22;51382;53.180;15.414;2023-07-09T22:03:02;18.70;94.20
20162;DHT22;51382;53.180;15.414;2023-07-09T22:18:15;18.90;93.30
20162;DHT22;51382;53.180;15.414;2023-07-09T22:33:28;19.00;92.80
20162;DHT22;51382;53.180;15.414;2023-07-09T22:48:41;18.30;95.20
20162;DHT22;51382;53.180;15.414;2023-07-09T23:03:52;17.80;97.00
20162;DHT22;51382;53.180;15.414;2023-07-09T23:19:16;17.50;98.40
20162;DHT22;51382;53.180;15.414;2023-07-09T23:34:30;17.30;99.90
20162;DHT22;51382;53.180;15.414;2023-07-09T23:49:41;16.80;99.90
